This is the latest recevied weather packets stored in our database for station/object N8XE-13. If no packets are shown the sender has not sent any weather packets the latest 10 day(s).
| Time | Temp. | Humidity | Pressure | Rain* | Wind** | Luminosity | Snow |
|---|---|---|---|---|---|---|---|
| 1777667126 | 7.78° C | 79% | - | 0 mm | - | - | - |
| 1777666822 | 7.78° C | 78% | - | 0 mm | - | - | - |
| 1777666520 | 7.78° C | 79% | - | 0 mm | - | - | - |
| 1777666216 | 7.78° C | 79% | - | 0 mm | - | - | - |
| 1777665913 | 7.78° C | 79% | - | 0 mm | - | - | - |
| 1777665611 | 7.78° C | 80% | - | 0 mm | - | - | - |
| 1777665308 | 7.78° C | 79% | - | 0 mm | - | - | - |
| 1777665003 | 8.33° C | 78% | - | 0 mm | - | - | - |
| 1777664699 | 7.78° C | 79% | - | 0 mm | - | - | - |
| 1777664395 | 8.33° C | 78% | - | 0 mm | - | - | - |
| 1777664093 | 8.33° C | 78% | - | 0 mm | - | - | - |
| 1777663790 | 7.78° C | 79% | - | 0 mm | - | - | - |
| 1777663488 | 7.78° C | 79% | - | 0 mm | - | - | - |
| 1777663185 | 8.33° C | 79% | - | 0 mm | - | - | - |
| 1777662882 | 7.78° C | 79% | - | 0 mm | - | - | - |
| 1777662579 | 8.33° C | 78% | - | 0 mm | - | - | - |
| 1777662274 | 7.78° C | 80% | - | 0 mm | - | - | - |
| 1777661969 | 7.78° C | 81% | - | 0 mm | - | - | - |
| 1777661666 | 8.33° C | 81% | - | 0 mm | - | - | - |
| 1777661362 | 8.89° C | 79% | - | 0 mm | - | - | - |
| 1777661059 | 8.33° C | 82% | - | 0 mm | - | - | - |
| 1777660753 | 8.33° C | 81% | - | 0 mm | - | - | - |
| 1777660451 | 8.89° C | 79% | - | 0 mm | - | - | - |
| 1777660147 | 10° C | 78% | - | 0 mm | - | - | - |
| 1777659844 | 10° C | 77% | - | 0 mm | - | - | - |
* Rain latest hour (hover to see other rain measurements)
** Current wind speed in m/s (hover to see current wind gust speed)